This is the latest recevied weather packets stored in our database for station/object NM5PB-13. If no packets are shown the sender has not sent any weather packets the latest 10 day(s).
| Time | Temp. | Humidity | Pressure | Rain* | Wind** | Luminosity | Snow |
|---|---|---|---|---|---|---|---|
| 1777557018 | 8.33° C | 69% | 1015 hPa | 0 mm | - | - | - |
| 1777556101 | 7.78° C | 71% | 1016 hPa | 0 mm | - | - | - |
| 1777555186 | 7.78° C | 74% | 1016 hPa | 0 mm | - | - | - |
| 1777554283 | 6.67° C | 79% | 1016 hPa | 0 mm | - | - | - |
| 1777553373 | 5.56° C | 86% | 1016 hPa | 0 mm | - | - | - |
| 1777552461 | 4.44° C | 95% | 1016 hPa | 0 mm | - | - | - |
| 1777551559 | 2.78° C | 96% | 1016 hPa | 0 mm | - | - | - |
| 1777550642 | 2.22° C | 96% | 1016 hPa | 0 mm | - | - | - |
| 1777549730 | 1.67° C | 96% | 1016 hPa | 0 mm | - | - | - |
| 1777548821 | 1.67° C | 96% | 1016 hPa | 0 mm | - | - | - |
| 1777547915 | 1.67° C | 96% | 1016 hPa | 0 mm | - | - | - |
| 1777547000 | 1.67° C | 96% | 1016 hPa | 0 mm | - | - | - |
| 1777546083 | 1.67° C | 96% | 1016 hPa | 0 mm | - | - | - |
| 1777545170 | 1.67° C | 95% | 1016 hPa | 0 mm | - | - | - |
| 1777544261 | 1.67° C | 96% | 1016 hPa | 0 mm | - | - | - |
| 1777543356 | 1.67° C | 95% | 1016 hPa | 0 mm | - | - | - |
| 1777542441 | 2.22° C | 95% | 1016 hPa | 0 mm | - | - | - |
| 1777541525 | 2.22° C | 95% | 1017 hPa | 0 mm | - | - | - |
| 1777540621 | 2.22° C | 95% | 1017 hPa | 0 mm | - | - | - |
| 1777539718 | 2.22° C | 95% | 1017 hPa | 0 mm | - | - | - |
| 1777538813 | 2.78° C | 94% | 1017 hPa | 0 mm | - | - | - |
| 1777537911 | 2.78° C | 93% | 1017 hPa | 0 mm | - | - | - |
| 1777537005 | 2.78° C | 93% | 1016 hPa | 0 mm | - | - | - |
| 1777536101 | 2.78° C | 92% | 1017 hPa | 0 mm | - | - | - |
| 1777535199 | 2.78° C | 93% | 1017 hPa | 0 mm | - | - | - |
* Rain latest hour (hover to see other rain measurements)
** Current wind speed in m/s (hover to see current wind gust speed)